< < Back
Terminal Aerodrome Forecast


Current Version              Previous Versions:   1  2  3  4  5  6  7  8  9  

Terminal Aerodrome Forecast

576
FTUS42 KMLB 202100 AAA
TAFDAB
TAF AMD
KDAB 202149Z 2022/2118 01013G19KT P6SM BKN025
      TEMPO 2022/2024 SCT024
     FM210600 36009KT P6SM BKN012 BKN035
     FM211400 35013KT P6SM SCT015 SCT035=

Latest METAR

327
SAUS80 KWBC 210200 RRA
MTRDAB
METAR KDAB 210153Z 33006KT 10SM OVC016 16/13 A3010 RMK AO2 SLP193
T01610133


USA.gov is the U.S. government's official web portal to all federal, state and local government web resources and services.